Time;durP1;ratioP1;P1;durP2;ratioP2;P2;SDS_P1;SDS_P2;PMS_P1;PMS_P2;Temp;Humidity;BMP_temperature;BMP_pressure;BME280_temperature;BME280_humidity;BME280_pressure;Samples;Min_cycle;Max_cycle;Signal;HPM_P1;HPM_P2
2022/04/13 00:02:17;;;;;;;18.27;8.48;;;23.20;68.70;;;;;;5009768;28;20018;-72
2022/04/13 00:04:44;;;;;;;13.65;7.90;;;23.10;68.60;;;;;;5009263;28;20057;-72
2022/04/13 00:07:10;;;;;;;11.65;8.55;;;23.20;68.80;;;;;;5008176;28;20014;-71
2022/04/13 00:09:37;;;;;;;11.98;8.90;;;23.10;68.70;;;;;;5008109;28;20088;-72
2022/04/13 00:12:04;;;;;;;11.60;8.82;;;23.10;68.70;;;;;;5009082;28;20026;-72
2022/04/13 00:14:31;;;;;;;10.55;8.32;;;23.10;68.70;;;;;;5008168;28;20477;-72
2022/04/13 00:16:58;;;;;;;14.55;10.15;;;23.10;68.80;;;;;;5007062;28;20080;-72
2022/04/13 00:19:25;;;;;;;11.88;8.35;;;23.10;68.90;;;;;;5008264;28;20030;-71
2022/04/13 00:21:53;;;;;;;12.43;8.55;;;23.00;69.70;;;;;;5005604;28;20428;-71
2022/04/13 00:24:19;;;;;;;10.98;7.75;;;23.10;69.10;;;;;;5008855;28;20022;-71
2022/04/13 00:26:46;;;;;;;9.05;8.00;;;23.00;69.10;;;;;;5008054;28;20022;-72
2022/04/13 00:29:13;;;;;;;9.68;7.70;;;23.00;69.20;;;;;;5006397;28;20504;-72
2022/04/13 00:31:39;;;;;;;8.73;7.10;;;23.00;69.30;;;;;;5006233;28;20109;-72
2022/04/13 00:34:06;;;;;;;8.70;7.75;;;23.00;69.40;;;;;;5005927;28;20076;-71
2022/04/13 00:36:33;;;;;;;12.55;8.77;;;23.00;69.40;;;;;;5007360;28;20038;-72
2022/04/13 00:38:59;;;;;;;14.02;10.57;;;23.00;69.40;;;;;;5006142;28;20034;-72
2022/04/13 00:41:26;;;;;;;16.92;10.73;;;23.00;69.50;;;;;;5009216;28;20113;-73
2022/04/13 00:44:07;;;;;;;16.77;11.45;;;23.00;69.60;;;;;;5005214;28;20040;-71
2022/04/13 00:46:34;;;;;;;18.10;10.48;;;23.00;69.60;;;;;;5006593;28;20022;-71
2022/04/13 00:49:07;;;;;;;18.42;12.38;;;23.00;69.50;;;;;;5006436;28;20440;-72
2022/04/13 00:51:33;;;;;;;14.80;11.43;;;23.00;69.40;;;;;;5018898;28;20022;-72
2022/04/13 00:54:01;;;;;;;13.82;10.23;;;23.00;69.40;;;;;;5008870;28;20018;-72
2022/04/13 00:56:29;;;;;;;11.27;9.75;;;22.90;69.20;;;;;;5005495;28;20060;-72
2022/04/13 00:59:15;;;;;;;9.82;8.82;;;22.90;69.10;;;;;;5008784;28;20053;-72
2022/04/13 01:01:49;;;;;;;13.10;8.05;;;22.90;69.70;;;;;;5007001;28;20026;-71
2022/04/13 01:04:19;;;;;;;9.15;8.02;;;22.90;69.10;;;;;;5005156;28;20053;-72
2022/04/13 01:06:46;;;;;;;8.02;7.05;;;22.90;69.00;;;;;;5019851;28;20076;-72
2022/04/13 01:09:18;;;;;;;6.10;5.55;;;22.90;69.00;;;;;;5007874;28;20021;-72
2022/04/13 01:11:45;;;;;;;6.47;5.75;;;22.90;69.00;;;;;;5015782;28;20051;-71
2022/04/13 01:14:11;;;;;;;6.05;5.45;;;22.90;69.00;;;;;;5006289;28;20026;-72
2022/04/13 01:16:39;;;;;;;5.30;4.80;;;22.90;69.00;;;;;;5008634;28;20030;-71
2022/04/13 01:19:07;;;;;;;4.72;4.22;;;22.90;69.00;;;;;;5004488;28;20022;-72
2022/04/13 01:21:53;;;;;;;5.75;3.83;;;22.90;69.70;;;;;;5007534;28;20623;-72
2022/04/13 01:24:21;;;;;;;3.88;3.47;;;22.90;69.10;;;;;;5007594;28;20072;-72
2022/04/13 01:26:48;;;;;;;4.38;3.13;;;22.80;69.10;;;;;;5007195;28;20100;-71
2022/04/13 01:29:14;;;;;;;3.67;2.90;;;22.80;69.20;;;;;;5006837;28;20021;-72
2022/04/13 01:31:41;;;;;;;2.70;2.50;;;22.80;69.30;;;;;;5005895;28;20014;-72
2022/04/13 01:34:08;;;;;;;3.30;2.65;;;22.80;69.30;;;;;;5008090;28;20052;-72
2022/04/13 01:36:37;;;;;;;3.25;2.90;;;22.80;69.30;;;;;;5006968;28;20038;-72
2022/04/13 01:39:05;;;;;;;5.50;3.70;;;22.80;69.20;;;;;;5006989;28;20018;-72
2022/04/13 01:41:31;;;;;;;5.13;4.57;;;22.70;69.20;;;;;;5008181;28;20022;-71
2022/04/13 01:43:58;;;;;;;6.15;4.60;;;22.70;69.10;;;;;;5006892;28;20025;-71
2022/04/13 01:46:24;;;;;;;12.50;6.00;;;22.70;69.00;;;;;;5006630;28;20501;-72
2022/04/13 01:48:51;;;;;;;8.55;6.28;;;22.70;69.10;;;;;;5007084;28;20384;-73
2022/04/13 01:51:20;;;;;;;10.93;4.85;;;22.70;69.20;;;;;;5006395;28;20025;-72
2022/04/13 01:53:51;;;;;;;8.02;4.70;;;22.60;69.20;;;;;;5006649;28;20524;-72
2022/04/13 01:56:18;;;;;;;5.90;3.47;;;22.60;69.40;;;;;;5004853;28;20058;-72
2022/04/13 01:58:44;;;;;;;3.67;3.25;;;22.60;69.60;;;;;;5005110;28;20022;-72
2022/04/13 02:01:11;;;;;;;4.32;2.38;;;22.50;69.70;;;;;;5006445;28;20100;-72
2022/04/13 02:03:38;;;;;;;2.65;2.45;;;22.50;70.50;;;;;;5007023;28;20029;-72
2022/04/13 02:06:04;;;;;;;2.00;1.80;;;22.50;69.90;;;;;;5005032;28;20021;-73
2022/04/13 02:08:31;;;;;;;2.35;2.00;;;22.50;70.00;;;;;;5006618;28;20025;-72
2022/04/13 02:10:58;;;;;;;2.08;1.70;;;22.50;70.10;;;;;;5001144;28;20026;-72
2022/04/13 02:13:24;;;;;;;1.42;1.33;;;22.50;70.90;;;;;;5006520;28;20508;-72
2022/04/13 02:15:51;;;;;;;2.53;1.75;;;22.50;70.40;;;;;;5007384;28;20477;-73
2022/04/13 02:18:17;;;;;;;1.75;1.42;;;22.40;70.60;;;;;;5007662;28;20025;-72
2022/04/13 02:20:44;;;;;;;1.90;1.70;;;22.40;70.70;;;;;;5004353;28;20026;-72
2022/04/13 02:23:10;;;;;;;3.03;1.52;;;22.40;70.70;;;;;;5006473;28;20385;-72
2022/04/13 02:25:37;;;;;;;1.48;1.38;;;22.40;70.80;;;;;;5006758;28;20019;-72
2022/04/13 02:28:06;;;;;;;1.95;1.50;;;22.40;71.10;;;;;;5005807;28;20406;-72
2022/04/13 02:30:33;;;;;;;2.28;1.75;;;22.40;71.30;;;;;;5018479;28;20030;-72
2022/04/13 02:33:01;;;;;;;2.33;1.58;;;22.40;71.50;;;;;;5007615;28;20029;-72
2022/04/13 02:35:28;;;;;;;4.63;2.17;;;22.40;71.60;;;;;;5005517;28;20041;-72
2022/04/13 02:37:54;;;;;;;3.65;1.92;;;22.40;71.90;;;;;;5005912;28;20037;-72
2022/04/13 02:40:21;;;;;;;3.67;2.17;;;22.40;72.00;;;;;;5006088;28;20453;-71
2022/04/13 02:42:47;;;;;;;2.45;2.25;;;22.40;72.10;;;;;;5007570;28;20048;-72
2022/04/13 02:45:14;;;;;;;4.18;2.38;;;22.30;72.90;;;;;;5005153;28;20018;-73
2022/04/13 02:47:40;;;;;;;2.25;1.65;;;22.30;72.40;;;;;;5001670;28;20027;-72
2022/04/13 02:50:08;;;;;;;1.80;1.45;;;22.30;72.50;;;;;;5006073;28;20037;-72
2022/04/13 02:52:34;;;;;;;1.75;1.58;;;22.30;72.60;;;;;;5005363;28;20026;-72
2022/04/13 02:55:01;;;;;;;2.67;1.88;;;22.40;72.90;;;;;;5003955;28;20121;-72
2022/04/13 02:57:27;;;;;;;3.95;2.38;;;22.30;72.90;;;;;;5005939;28;20045;-72
2022/04/13 02:59:54;;;;;;;2.20;1.98;;;22.40;73.10;;;;;;5008287;28;20014;-71
2022/04/13 03:02:20;;;;;;;8.88;2.95;;;22.30;73.20;;;;;;5004116;28;20478;-72
2022/04/13 03:04:48;;;;;;;8.25;2.72;;;22.30;73.40;;;;;;5006151;28;20396;-71
2022/04/13 03:07:17;;;;;;;7.03;3.03;;;22.30;73.60;;;;;;5007058;28;20111;-72
2022/04/13 03:09:43;;;;;;;19.63;3.60;;;22.30;73.80;;;;;;5010306;28;20088;-72
2022/04/13 03:12:11;;;;;;;12.95;3.63;;;22.40;74.10;;;;;;5008976;28;20400;-72
2022/04/13 03:14:40;;;;;;;16.60;3.60;;;22.40;74.20;;;;;;5006022;28;20477;-72
2022/04/13 03:17:07;;;;;;;7.82;4.00;;;22.40;74.30;;;;;;5009178;28;20017;-73
2022/04/13 03:19:34;;;;;;;8.02;3.83;;;22.40;74.30;;;;;;5008617;28;20028;-71
2022/04/13 03:22:00;;;;;;;20.45;4.60;;;22.30;74.20;;;;;;5010205;28;20034;-72
2022/04/13 03:24:27;;;;;;;8.00;4.55;;;22.30;74.30;;;;;;5008469;28;20045;-72
2022/04/13 03:26:57;;;;;;;16.15;3.78;;;22.30;74.30;;;;;;5007161;28;20069;-72
2022/04/13 03:29:24;;;;;;;13.73;5.45;;;22.30;74.30;;;;;;5014150;28;20482;-72
2022/04/13 03:31:50;;;;;;;11.25;5.07;;;22.30;74.30;;;;;;5006116;28;20530;-71
2022/04/13 03:34:20;;;;;;;15.50;5.43;;;22.30;74.30;;;;;;5007470;28;20029;-71
2022/04/13 03:36:50;;;;;;;11.55;4.90;;;22.30;74.20;;;;;;5004945;28;20030;-71
2022/04/13 03:39:17;;;;;;;9.75;6.78;;;22.40;74.20;;;;;;5004170;28;20026;-71
2022/04/13 03:41:43;;;;;;;7.78;5.72;;;22.30;74.10;;;;;;5005734;28;20017;-71
2022/04/13 03:44:10;;;;;;;12.68;6.68;;;22.30;74.10;;;;;;5006110;28;20021;-71
2022/04/13 03:46:37;;;;;;;14.15;7.55;;;22.30;74.20;;;;;;5003875;28;20448;-74
2022/04/13 03:49:11;;;;;;;18.02;8.00;;;22.30;74.20;;;;;;5006111;28;20370;-71
2022/04/13 03:51:38;;;;;;;19.80;12.50;;;22.30;74.20;;;;;;5007598;28;20069;-71
2022/04/13 03:54:13;;;;;;;25.70;17.80;;;22.30;74.40;;;;;;5006397;28;20040;-72
2022/04/13 03:56:39;;;;;;;25.33;16.55;;;22.30;74.40;;;;;;5004636;28;20456;-71
2022/04/13 03:59:09;;;;;;;16.55;11.40;;;22.30;74.50;;;;;;5008433;28;20026;-72
2022/04/13 04:01:36;;;;;;;16.67;10.10;;;22.30;74.60;;;;;;5006016;28;20088;-73
2022/04/13 04:04:03;;;;;;;29.73;12.13;;;22.30;74.80;;;;;;5005684;28;20306;-72
2022/04/13 04:06:29;;;;;;;11.60;7.57;;;22.30;75.00;;;;;;5003963;28;20014;-74
2022/04/13 04:08:56;;;;;;;15.93;7.68;;;22.40;75.50;;;;;;5008212;28;20032;-73
2022/04/13 04:11:23;;;;;;;14.80;8.40;;;22.20;75.50;;;;;;5007394;28;20025;-74
2022/04/13 04:13:49;;;;;;;13.38;7.15;;;22.20;76.10;;;;;;5006466;28;20017;-73
2022/04/13 04:16:16;;;;;;;14.50;8.77;;;22.20;76.50;;;;;;5004747;28;21352;-74
2022/04/13 04:18:42;;;;;;;12.52;7.47;;;22.20;76.60;;;;;;5009174;28;20500;-73
2022/04/13 04:21:09;;;;;;;17.65;9.75;;;22.20;76.50;;;;;;5008214;28;20093;-72
2022/04/13 04:23:36;;;;;;;22.35;12.25;;;22.20;76.50;;;;;;5006221;28;20026;-72
2022/04/13 04:26:02;;;;;;;17.00;10.80;;;22.20;76.40;;;;;;5008241;28;20026;-74
2022/04/13 04:28:33;;;;;;;30.48;12.70;;;22.20;76.30;;;;;;5004869;28;20191;-73
2022/04/13 04:30:59;;;;;;;52.90;47.15;;;22.20;76.10;;;;;;5019539;28;20030;-72
2022/04/13 04:33:26;;;;;;;38.10;29.23;;;22.20;76.30;;;;;;5006220;28;20024;-72
2022/04/13 04:35:52;;;;;;;30.20;22.33;;;22.20;76.50;;;;;;5007526;28;20072;-73
2022/04/13 04:38:20;;;;;;;26.50;16.95;;;22.10;76.60;;;;;;5005500;28;20084;-71
2022/04/13 04:40:46;;;;;;;18.02;14.35;;;22.20;76.80;;;;;;5003236;28;20065;-70
2022/04/13 04:43:13;;;;;;;18.52;11.45;;;22.20;76.80;;;;;;5010103;28;20798;-71
2022/04/13 04:45:39;;;;;;;14.70;10.52;;;22.20;76.80;;;;;;5006543;28;20482;-70
2022/04/13 04:48:06;;;;;;;15.45;10.38;;;22.20;76.80;;;;;;5009071;28;20508;-70
2022/04/13 04:50:34;;;;;;;17.65;11.52;;;22.20;76.70;;;;;;5007833;28;20026;-72
2022/04/13 04:53:01;;;;;;;18.40;10.23;;;22.20;76.80;;;;;;5008099;28;20045;-71
2022/04/13 04:55:27;;;;;;;17.35;11.15;;;22.20;76.80;;;;;;5001766;28;20033;-71
2022/04/13 04:57:58;;;;;;;16.83;10.20;;;22.20;76.80;;;;;;5003149;28;20042;-71
2022/04/13 05:00:25;;;;;;;22.60;11.38;;;22.20;77.00;;;;;;5009726;28;20026;-72
2022/04/13 05:02:52;;;;;;;17.73;9.73;;;22.20;77.10;;;;;;5007266;28;20026;-71
2022/04/13 05:05:20;;;;;;;15.02;9.55;;;22.20;77.20;;;;;;5008991;28;20018;-72
2022/04/13 05:07:47;;;;;;;15.30;9.18;;;22.20;77.40;;;;;;5010776;28;20022;-71
2022/04/13 05:10:14;;;;;;;14.43;9.40;;;22.20;77.60;;;;;;5004655;28;20040;-71
2022/04/13 05:12:48;;;;;;;17.27;10.30;;;22.20;77.70;;;;;;5010516;28;20646;-72
2022/04/13 05:15:15;;;;;;;14.70;10.60;;;22.20;77.90;;;;;;5005728;28;20046;-72
2022/04/13 05:17:42;;;;;;;17.08;8.63;;;22.20;78.00;;;;;;5010254;28;20275;-71
2022/04/13 05:20:10;;;;;;;15.77;9.75;;;22.20;78.10;;;;;;5009561;28;20101;-72
2022/04/13 05:22:37;;;;;;;18.05;9.65;;;22.20;78.30;;;;;;5008894;28;20030;-72
2022/04/13 05:25:17;;;;;;;16.05;9.77;;;22.20;78.50;;;;;;5008650;28;20022;-71
2022/04/13 05:27:46;;;;;;;18.38;9.70;;;22.20;78.60;;;;;;5004303;28;20477;-71
2022/04/13 05:30:16;;;;;;;17.77;10.27;;;22.20;78.90;;;;;;5003206;28;20663;-71
2022/04/13 05:32:47;;;;;;;19.20;10.45;;;22.20;79.10;;;;;;5003787;28;20022;-72
2022/04/13 05:35:14;;;;;;;15.88;9.85;;;22.20;79.20;;;;;;5003577;28;20034;-71
2022/04/13 05:37:41;;;;;;;15.35;10.07;;;22.20;79.30;;;;;;5008560;28;20028;-71
2022/04/13 05:40:08;;;;;;;21.95;11.43;;;22.20;79.50;;;;;;5008618;28;20497;-71
2022/04/13 05:42:34;;;;;;;18.23;8.95;;;22.30;79.60;;;;;;5008032;28;20032;-71
2022/04/13 05:45:01;;;;;;;17.38;9.75;;;22.30;79.70;;;;;;5006153;28;20551;-71
2022/04/13 05:47:28;;;;;;;22.38;10.73;;;22.30;79.70;;;;;;5013052;28;20017;-71
2022/04/13 05:49:54;;;;;;;24.35;11.32;;;22.30;79.90;;;;;;5008500;28;20028;-71
2022/04/13 05:52:21;;;;;;;23.25;10.68;;;22.20;80.00;;;;;;5008526;28;20030;-71
2022/04/13 05:54:47;;;;;;;19.20;10.05;;;22.30;80.20;;;;;;5005270;28;20034;-71
2022/04/13 05:57:14;;;;;;;29.65;9.80;;;22.20;80.10;;;;;;5005582;28;20038;-71
2022/04/13 05:59:40;;;;;;;24.90;11.13;;;22.20;80.20;;;;;;5003748;28;20017;-71
2022/04/13 06:02:07;;;;;;;22.27;10.63;;;22.30;80.20;;;;;;5003789;28;20109;-72
2022/04/13 06:04:33;;;;;;;15.77;9.00;;;22.30;80.20;;;;;;5001080;28;20473;-72
2022/04/13 06:07:00;;;;;;;20.55;8.68;;;22.30;80.10;;;;;;5005114;28;20109;-71
2022/04/13 06:09:27;;;;;;;14.38;5.93;;;22.30;80.00;;;;;;5004176;28;20104;-71
2022/04/13 06:11:53;;;;;;;10.00;5.30;;;22.30;79.90;;;;;;5008898;28;20570;-72
2022/04/13 06:14:20;;;;;;;17.90;6.03;;;22.30;79.90;;;;;;5008075;28;20473;-71
2022/04/13 06:16:46;;;;;;;16.02;6.10;;;22.30;79.90;;;;;;5007672;28;20034;-72
2022/04/13 06:19:13;;;;;;;15.50;5.30;;;22.30;80.20;;;;;;5005658;28;20037;-72
2022/04/13 06:21:39;;;;;;;9.98;5.00;;;22.30;81.10;;;;;;5008789;28;20105;-71
2022/04/13 06:24:06;;;;;;;8.75;4.57;;;22.30;80.60;;;;;;5004056;28;20021;-71
2022/04/13 06:26:33;;;;;;;8.45;4.60;;;22.30;80.60;;;;;;5002023;28;20577;-71
2022/04/13 06:28:59;;;;;;;9.82;5.90;;;22.40;80.50;;;;;;5007069;28;20025;-72
2022/04/13 06:31:26;;;;;;;11.00;5.18;;;22.40;80.30;;;;;;5007285;28;20069;-71
2022/04/13 06:33:52;;;;;;;12.85;5.70;;;22.40;80.10;;;;;;5004761;28;20032;-71
2022/04/13 06:36:19;;;;;;;10.10;5.05;;;22.40;80.00;;;;;;5003783;28;20034;-72
2022/04/13 06:38:46;;;;;;;8.57;4.93;;;22.40;79.80;;;;;;5008918;28;20037;-71
2022/04/13 06:41:13;;;;;;;8.15;5.10;;;22.40;79.70;;;;;;5004313;28;20026;-71
2022/04/13 06:43:40;;;;;;;8.32;4.63;;;22.40;79.60;;;;;;5008051;28;20030;-72
2022/04/13 06:46:15;;;;;;;12.30;5.03;;;22.40;79.50;;;;;;5003047;28;20100;-71
2022/04/13 06:48:41;;;;;;;;;;;22.40;79.40;;;;;;5003924;28;20033;-71
2022/04/13 06:51:08;;;;;;;9.25;5.53;;;22.40;79.30;;;;;;5004914;28;19916;-71
2022/04/13 06:53:34;;;;;;;7.30;4.88;;;22.50;79.30;;;;;;5002791;28;20410;-71
2022/04/13 06:56:01;;;;;;;11.07;5.10;;;22.50;79.20;;;;;;5004997;28;20050;-72
2022/04/13 06:58:27;;;;;;;13.25;7.35;;;22.50;79.10;;;;;;5008456;28;20018;-71
2022/04/13 07:00:57;;;;;;;14.85;6.97;;;22.50;79.10;;;;;;5009706;28;20026;-71
2022/04/13 07:03:33;;;;;;;13.00;6.80;;;22.50;79.40;;;;;;5008662;28;20045;-71
2022/04/13 07:05:59;;;;;;;10.98;6.43;;;22.50;79.50;;;;;;5003010;28;20037;-71
2022/04/13 07:08:26;;;;;;;10.70;6.15;;;22.50;79.50;;;;;;5003973;28;20029;-72
2022/04/13 07:10:52;;;;;;;8.93;5.25;;;22.50;79.20;;;;;;5005322;28;20025;-72
2022/04/13 07:13:19;;;;;;;14.38;6.13;;;22.60;78.80;;;;;;5006239;28;20108;-72
2022/04/13 07:15:46;;;;;;;8.57;5.15;;;22.60;78.10;;;;;;5006589;28;20393;-71
2022/04/13 07:18:12;;;;;;;6.53;5.22;;;22.60;77.20;;;;;;5004621;28;20515;-71
2022/04/13 07:20:39;;;;;;;9.40;4.95;;;22.60;76.50;;;;;;5004826;28;20014;-71
2022/04/13 07:23:05;;;;;;;8.23;5.10;;;22.60;75.70;;;;;;5003981;28;20023;-71
2022/04/13 07:25:32;;;;;;;17.73;5.78;;;22.60;75.10;;;;;;5005593;28;20025;-71
2022/04/13 07:27:58;;;;;;;13.45;4.40;;;22.60;75.30;;;;;;5007505;28;20026;-71
2022/04/13 07:30:25;;;;;;;11.93;4.45;;;22.60;76.30;;;;;;5007230;28;20030;-71
2022/04/13 07:33:01;;;;;;;9.40;4.95;;;22.70;76.50;;;;;;5006794;28;20411;-71
2022/04/13 07:35:29;;;;;;;9.75;5.35;;;22.70;76.60;;;;;;5008663;28;20030;-71
2022/04/13 07:37:56;;;;;;;16.23;5.55;;;22.70;76.80;;;;;;5007712;28;20037;-71
2022/04/13 07:40:23;;;;;;;13.52;5.78;;;22.70;77.70;;;;;;5007000;28;20084;-72
2022/04/13 07:42:49;;;;;;;24.88;8.65;;;22.70;78.00;;;;;;5001819;28;20024;-71
2022/04/13 07:45:16;;;;;;;13.57;6.78;;;22.70;78.30;;;;;;5009333;28;20962;-71
2022/04/13 07:47:43;;;;;;;11.15;6.80;;;22.70;78.50;;;;;;5004925;28;20022;-71
2022/04/13 07:50:13;;;;;;;8.98;7.10;;;22.70;78.60;;;;;;5002294;28;20029;-71
2022/04/13 07:52:41;;;;;;;12.55;6.72;;;22.70;78.60;;;;;;5011783;28;20014;-71
2022/04/13 07:55:12;;;;;;;13.73;7.18;;;22.70;78.50;;;;;;5007396;28;20034;-72
2022/04/13 07:57:40;;;;;;;12.52;7.50;;;22.70;78.60;;;;;;5009688;28;20121;-71
2022/04/13 08:00:11;;;;;;;7.65;5.85;;;22.70;78.70;;;;;;5009043;28;20026;-71
2022/04/13 08:02:41;;;;;;;8.35;4.78;;;22.70;78.60;;;;;;5011921;28;20485;-71
2022/04/13 08:05:09;;;;;;;7.18;5.55;;;22.80;78.60;;;;;;5011075;28;20029;-71
2022/04/13 08:07:36;;;;;;;11.98;5.85;;;22.80;78.60;;;;;;5006275;28;20041;-71
2022/04/13 08:10:03;;;;;;;19.98;6.57;;;22.80;78.50;;;;;;5008844;28;20026;-71
2022/04/13 08:12:30;;;;;;;10.57;4.80;;;22.80;78.40;;;;;;5007677;28;20053;-71
2022/04/13 08:14:58;;;;;;;8.70;4.65;;;22.80;78.50;;;;;;5010680;28;20029;-71
2022/04/13 08:17:26;;;;;;;10.40;5.95;;;22.90;78.40;;;;;;5001979;28;20061;-71
2022/04/13 08:19:53;;;;;;;11.10;4.15;;;22.90;78.30;;;;;;5012450;28;20033;-71
2022/04/13 08:22:27;;;;;;;9.00;4.78;;;22.90;78.00;;;;;;5008955;28;20022;-71
2022/04/13 08:24:53;;;;;;;10.88;4.40;;;23.00;77.90;;;;;;5011529;28;20022;-71
2022/04/13 08:27:20;;;;;;;10.23;2.97;;;23.00;77.60;;;;;;5004500;28;20030;-72
2022/04/13 08:29:47;;;;;;;8.70;3.03;;;23.00;77.40;;;;;;5009289;28;20404;-71
2022/04/13 08:32:16;;;;;;;5.65;2.28;;;23.00;77.10;;;;;;5008331;28;20018;-71
2022/04/13 08:34:43;;;;;;;6.53;2.78;;;23.10;76.80;;;;;;5010358;28;20045;-72
2022/04/13 08:37:10;;;;;;;5.35;2.63;;;23.10;76.50;;;;;;5001236;28;20385;-71
2022/04/13 08:39:37;;;;;;;4.68;2.97;;;23.10;76.30;;;;;;5011146;28;20041;-71
2022/04/13 08:42:13;;;;;;;5.28;3.17;;;23.10;76.00;;;;;;5010024;28;20032;-72
2022/04/13 08:44:46;;;;;;;11.93;4.22;;;23.10;75.90;;;;;;5007794;28;20032;-72
2022/04/13 08:47:21;;;;;;;5.03;3.53;;;23.20;76.10;;;;;;5005199;28;20025;-72
2022/04/13 08:49:50;;;;;;;14.88;3.20;;;23.20;76.10;;;;;;5010812;28;20022;-72
2022/04/13 08:52:24;;;;;;;6.63;2.97;;;23.20;76.30;;;;;;5009905;28;20057;-71
2022/04/13 08:55:16;;;;;;;14.23;4.80;;;23.20;76.50;;;;;;5010454;28;20021;-71
2022/04/13 08:57:50;;;;;;;7.63;3.35;;;23.30;76.60;;;;;;5007641;28;20037;-71
2022/04/13 09:00:22;;;;;;;10.23;2.97;;;23.30;76.40;;;;;;5010231;28;20053;-71
2022/04/13 09:02:48;;;;;;;11.05;3.22;;;23.40;76.30;;;;;;5007269;28;20551;-71
2022/04/13 09:05:23;;;;;;;9.23;3.47;;;23.40;76.10;;;;;;5008685;28;20034;-71
2022/04/13 09:08:02;;;;;;;9.98;3.20;;;23.50;76.30;;;;;;5007416;28;20042;-71
2022/04/13 09:10:29;;;;;;;18.65;3.83;;;23.50;76.30;;;;;;5011319;28;20041;-71
2022/04/13 09:12:57;;;;;;;9.68;3.17;;;23.50;76.10;;;;;;5006250;28;20068;-72
2022/04/13 09:15:24;;;;;;;8.63;3.08;;;23.60;76.00;;;;;;5008101;28;20034;-71
2022/04/13 09:17:51;;;;;;;7.22;2.85;;;23.60;75.40;;;;;;5005148;28;20029;-72
2022/04/13 09:20:18;;;;;;;7.32;3.45;;;23.70;75.00;;;;;;5008004;28;20550;-72
2022/04/13 09:22:46;;;;;;;14.68;3.55;;;23.70;74.70;;;;;;5006586;28;20057;-72
2022/04/13 09:25:13;;;;;;;19.80;3.28;;;23.70;74.40;;;;;;5006158;28;20096;-71
2022/04/13 09:27:40;;;;;;;6.95;3.15;;;23.80;74.40;;;;;;5003807;28;20044;-72
2022/04/13 09:30:08;;;;;;;5.85;2.47;;;23.80;74.40;;;;;;5006006;28;20025;-71
2022/04/13 09:32:35;;;;;;;6.10;2.65;;;23.90;74.40;;;;;;5005385;28;20030;-72
2022/04/13 09:35:02;;;;;;;7.97;2.78;;;23.90;74.30;;;;;;5005773;28;20480;-72
2022/04/13 09:37:29;;;;;;;5.47;2.28;;;24.00;74.20;;;;;;5002495;28;20018;-71
2022/04/13 09:39:56;;;;;;;11.73;3.08;;;24.00;73.50;;;;;;5001763;28;20029;-71
2022/04/13 09:42:28;;;;;;;12.82;2.92;;;24.10;73.40;;;;;;5009081;28;20432;-71
2022/04/13 09:44:56;;;;;;;7.00;2.50;;;24.10;73.20;;;;;;5010932;28;20096;-71
2022/04/13 09:47:29;;;;;;;9.70;2.58;;;24.20;73.10;;;;;;5003293;28;20354;-71
2022/04/13 09:49:56;;;;;;;14.13;2.75;;;24.20;72.90;;;;;;5001497;28;20030;-71
2022/04/13 09:52:43;;;;;;;8.75;2.80;;;24.30;72.60;;;;;;5005261;28;20041;-71
2022/04/13 09:55:10;;;;;;;11.63;2.95;;;24.30;72.10;;;;;;5010011;28;20034;-71
2022/04/13 09:57:37;;;;;;;8.95;2.90;;;24.40;71.80;;;;;;5004526;28;20045;-72
2022/04/13 10:00:06;;;;;;;7.28;2.83;;;24.40;72.20;;;;;;5003205;28;20026;-71
2022/04/13 10:02:43;;;;;;;7.18;3.20;;;24.40;71.40;;;;;;5008819;28;20109;-71
2022/04/13 10:05:16;;;;;;;10.30;2.15;;;24.40;71.50;;;;;;5003057;28;20022;-72
2022/04/13 10:07:43;;;;;;;7.53;2.25;;;24.50;71.40;;;;;;5002790;28;20030;-72
2022/04/13 12:31:10;;;;;;;8.68;2.75;;;25.80;62.40;;;;;;5123999;27;20407;-71
2022/04/13 12:33:38;;;;;;;5.93;2.10;;;26.00;63.80;;;;;;5104483;28;20066;-73
2022/04/13 12:36:07;;;;;;;6.68;2.42;;;26.00;63.60;;;;;;5107591;28;20024;-70
2022/04/13 12:38:36;;;;;;;4.75;2.38;;;26.10;63.40;;;;;;5115486;28;20024;-70
2022/04/13 12:41:24;;;;;;;9.38;2.15;;;26.20;63.20;;;;;;5109307;28;20062;-70
2022/04/13 12:43:59;;;;;;;5.10;2.05;;;26.20;63.20;;;;;;5110071;28;20031;-70
2022/04/13 12:46:33;;;;;;;8.27;3.80;;;26.20;63.20;;;;;;5111692;27;20035;-70
2022/04/13 12:49:00;;;;;;;7.18;2.78;;;26.20;63.20;;;;;;5118207;28;20027;-70
2022/04/13 12:51:38;;;;;;;7.30;2.55;;;26.20;63.30;;;;;;5107260;27;20106;-70
2022/04/13 12:54:07;;;;;;;8.80;2.60;;;26.10;63.40;;;;;;5112581;27;20024;-70
2022/04/13 12:56:36;;;;;;;10.45;3.15;;;26.10;63.50;;;;;;5111233;28;20434;-71
2022/04/13 12:59:04;;;;;;;9.52;2.60;;;26.10;63.70;;;;;;5110163;28;20032;-70
2022/04/13 13:01:36;;;;;;;9.82;2.28;;;26.10;63.90;;;;;;5108244;28;20024;-70
2022/04/13 13:04:13;;;;;;;8.05;2.05;;;26.20;64.10;;;;;;5109253;27;20374;-70
2022/04/13 13:07:05;;;;;;;9.00;2.70;;;26.20;64.10;;;;;;5110163;28;20020;-70
2022/04/13 13:09:36;;;;;;;15.15;3.20;;;26.20;64.10;;;;;;5112498;28;20479;-70
2022/04/13 13:12:08;;;;;;;9.80;2.97;;;26.20;64.10;;;;;;5116088;27;20404;-70
2022/04/13 13:14:36;;;;;;;9.75;2.67;;;26.20;64.00;;;;;;5107559;28;20055;-70
2022/04/13 13:17:27;;;;;;;8.00;2.58;;;26.20;64.30;;;;;;5118057;28;20018;-73
2022/04/13 13:19:55;;;;;;;7.93;2.78;;;26.10;64.00;;;;;;5103144;28;20043;-70
2022/04/13 13:22:27;;;;;;;8.55;2.60;;;26.10;64.20;;;;;;5113260;28;20038;-72
2022/04/13 13:25:08;;;;;;;10.70;3.20;;;26.00;64.60;;;;;;5114147;27;20051;-71
2022/04/13 13:27:37;;;;;;;8.80;2.50;;;26.00;65.00;;;;;;5105795;28;20103;-70
2022/04/13 13:30:10;;;;;;;7.20;2.20;;;25.90;65.10;;;;;;5111415;28;20055;-70
2022/04/13 13:32:42;;;;;;;8.93;2.60;;;25.90;65.40;;;;;;5096701;28;20016;-70
2022/04/13 13:35:13;;;;;;;5.82;2.33;;;25.80;65.50;;;;;;5102047;28;20074;-71
2022/04/13 13:37:49;;;;;;;8.30;2.55;;;25.80;65.50;;;;;;5082265;28;20376;-71
2022/04/13 13:40:32;;;;;;;8.23;3.00;;;25.80;65.60;;;;;;5100573;28;20032;-70
2022/04/13 13:43:03;;;;;;;7.40;2.53;;;25.80;65.60;;;;;;5095994;28;20024;-70
2022/04/13 13:45:34;;;;;;;10.20;2.92;;;25.70;65.70;;;;;;5092039;28;20011;-71
2022/04/13 13:48:02;;;;;;;8.00;2.80;;;25.70;66.00;;;;;;5103674;28;20494;-70
2022/04/13 13:50:30;;;;;;;14.48;3.05;;;25.60;66.50;;;;;;5092955;28;20035;-70
2022/04/13 13:52:57;;;;;;;10.88;3.00;;;25.60;66.90;;;;;;5096873;28;20497;-71
2022/04/13 13:55:29;;;;;;;13.68;2.85;;;25.60;67.30;;;;;;5096417;28;20027;-71
2022/04/13 13:57:57;;;;;;;8.68;2.67;;;25.50;67.50;;;;;;5100670;28;20024;-71
2022/04/13 14:00:24;;;;;;;9.63;3.03;;;25.50;67.80;;;;;;5089402;28;20467;-70
2022/04/13 14:02:54;;;;;;;7.20;2.95;;;25.50;67.90;;;;;;5093619;28;20027;-70
2022/04/13 14:05:27;;;;;;;9.88;2.60;;;25.50;68.10;;;;;;5096535;28;20054;-70
2022/04/13 14:07:56;;;;;;;4.93;2.70;;;25.50;68.20;;;;;;5096903;28;20058;-72
2022/04/13 14:10:23;;;;;;;13.30;3.22;;;25.50;68.50;;;;;;5099803;28;20007;-72
2022/04/13 14:12:51;;;;;;;10.60;3.03;;;25.50;68.70;;;;;;5094114;28;20436;-71
2022/04/13 14:15:18;;;;;;;6.25;1.90;;;25.50;68.80;;;;;;5097306;28;20030;-71
2022/04/13 14:17:46;;;;;;;9.90;3.22;;;25.40;68.80;;;;;;5094586;28;20024;-71
2022/04/13 14:20:15;;;;;;;13.57;2.88;;;25.50;68.70;;;;;;5099871;28;20081;-71
2022/04/13 14:22:43;;;;;;;5.38;2.20;;;25.40;68.50;;;;;;5090123;28;20031;-70
2022/04/13 14:25:11;;;;;;;10.98;2.25;;;25.40;68.50;;;;;;5095690;28;20090;-69
2022/04/13 14:27:38;;;;;;;26.10;4.22;;;25.40;68.60;;;;;;5095100;28;20024;-74
2022/04/13 14:30:10;;;;;;;16.92;3.47;;;25.40;68.70;;;;;;5094288;28;20052;-73
2022/04/13 14:32:38;;;;;;;12.63;2.97;;;25.40;69.10;;;;;;5086941;28;20020;-70
2022/04/13 14:35:08;;;;;;;16.63;4.35;;;25.40;69.90;;;;;;5094163;28;20489;-70
2022/04/13 14:37:35;;;;;;;13.75;2.85;;;25.30;70.60;;;;;;5099052;28;20016;-71
2022/04/13 14:40:04;;;;;;;32.92;4.47;;;25.30;70.70;;;;;;5093048;28;20035;-71
2022/04/13 14:42:30;;;;;;;23.20;4.30;;;25.30;70.80;;;;;;5097046;28;20028;-72
2022/04/13 14:44:57;;;;;;;16.05;4.07;;;25.20;70.70;;;;;;5102800;28;20172;-71
2022/04/13 14:47:25;;;;;;;19.52;4.15;;;25.20;70.70;;;;;;5091727;28;20034;-71
2022/04/13 14:49:52;;;;;;;23.30;6.88;;;25.20;70.60;;;;;;5100326;28;20662;-70
2022/04/13 14:52:18;;;;;;;29.65;8.57;;;25.30;70.70;;;;;;5095021;28;20048;-71
2022/04/13 14:54:45;;;;;;;30.92;6.45;;;25.30;70.60;;;;;;5094365;28;20077;-71
2022/04/13 14:57:14;;;;;;;28.58;6.18;;;25.30;70.70;;;;;;5105438;28;20020;-71
2022/04/13 14:59:41;;;;;;;22.13;8.95;;;25.30;70.80;;;;;;5095831;28;20032;-69
2022/04/13 15:02:08;;;;;;;13.27;7.70;;;25.30;70.80;;;;;;5099667;28;20486;-71
2022/04/13 15:04:35;;;;;;;17.45;7.30;;;25.30;70.90;;;;;;5096061;28;20024;-72
2022/04/13 15:07:01;;;;;;;15.57;6.43;;;25.30;70.60;;;;;;5101601;28;20031;-71
2022/04/13 15:09:28;;;;;;;28.75;19.50;;;25.30;70.70;;;;;;5095823;28;20032;-71